createdAt,value
2023-03-08T00:02:19.243Z,1.63
2023-03-08T00:04:46.233Z,1.80
2023-03-08T00:07:13.180Z,2.40
2023-03-08T00:09:41.332Z,1.93
2023-03-08T00:12:10.503Z,2.00
2023-03-08T00:14:37.500Z,1.77
2023-03-08T00:17:04.968Z,2.20
2023-03-08T00:19:32.253Z,1.80
2023-03-08T00:21:59.258Z,2.50
2023-03-08T00:24:26.116Z,2.27
2023-03-08T00:26:54.360Z,2.27
2023-03-08T00:29:21.352Z,1.97
2023-03-08T00:31:48.696Z,2.10
2023-03-08T00:34:16.558Z,1.97
2023-03-08T00:36:43.543Z,2.03
2023-03-08T00:39:12.018Z,2.70
2023-03-08T00:41:39.010Z,2.10
2023-03-08T00:44:07.225Z,2.07
2023-03-08T00:46:34.704Z,2.77
2023-03-08T00:49:01.712Z,2.03
2023-03-08T00:51:28.666Z,2.17
2023-03-08T00:53:55.597Z,2.27
2023-03-08T00:56:22.550Z,2.30
2023-03-08T00:58:49.409Z,2.13
2023-03-08T01:01:19.382Z,2.77
2023-03-08T01:03:46.357Z,2.30
2023-03-08T01:06:15.950Z,2.10
2023-03-08T01:08:43.187Z,2.37
2023-03-08T01:11:18.172Z,2.27
2023-03-08T01:13:45.392Z,2.30
2023-03-08T01:16:19.894Z,1.83
2023-03-08T01:18:47.404Z,1.83
2023-03-08T01:21:14.525Z,2.50
2023-03-08T01:23:42.616Z,2.40
2023-03-08T01:26:13.718Z,2.00
2023-03-08T01:28:41.265Z,2.17
2023-03-08T01:31:12.446Z,2.00
2023-03-08T01:33:41.441Z,2.03
2023-03-08T01:36:12.527Z,1.90
2023-03-08T01:38:39.634Z,1.83
2023-03-08T01:41:08.420Z,2.13
2023-03-08T01:43:38.532Z,1.60
2023-03-08T01:46:15.512Z,1.97
2023-03-08T01:48:50.875Z,1.70
2023-03-08T01:51:28.601Z,2.10
2023-03-08T01:53:59.424Z,2.33
2023-03-08T01:56:27.779Z,2.20
2023-03-08T01:58:55.807Z,2.07
2023-03-08T02:01:23.061Z,2.20
2023-03-08T02:03:52.050Z,2.07
2023-03-08T02:06:21.428Z,2.27
2023-03-08T02:08:48.959Z,2.37
2023-03-08T02:11:19.199Z,2.47
2023-03-08T02:13:46.930Z,2.30
2023-03-08T02:16:16.440Z,1.97
2023-03-08T02:18:57.007Z,1.90
2023-03-08T02:21:24.715Z,2.50
2023-03-08T02:23:53.366Z,2.10
2023-03-08T02:26:20.916Z,2.37
2023-03-08T02:28:49.257Z,2.53
2023-03-08T02:31:16.884Z,2.67
2023-03-08T02:33:43.813Z,2.77
2023-03-08T02:36:10.979Z,3.00
2023-03-08T02:38:38.042Z,3.10
2023-03-08T02:41:06.622Z,3.20
2023-03-08T02:43:33.674Z,3.77
2023-03-08T02:46:00.681Z,3.43
2023-03-08T02:48:27.726Z,4.17
2023-03-08T02:50:54.607Z,4.03
2023-03-08T02:53:21.531Z,4.40
2023-03-08T02:55:48.502Z,4.47
2023-03-08T02:58:17.006Z,4.60
2023-03-08T03:00:44.085Z,4.80
2023-03-08T03:03:11.084Z,4.70
2023-03-08T03:05:42.932Z,5.27
2023-03-08T03:08:10.120Z,5.37
2023-03-08T03:10:41.909Z,4.80
2023-03-08T03:13:09.190Z,5.63
2023-03-08T03:15:39.821Z,5.20
2023-03-08T03:18:06.878Z,5.37
2023-03-08T03:20:34.403Z,5.97
2023-03-08T03:23:01.526Z,5.47
2023-03-08T03:25:28.801Z,5.97
2023-03-08T03:27:56.373Z,5.77
2023-03-08T03:30:23.353Z,6.13
2023-03-08T03:32:51.627Z,6.27
2023-03-08T03:35:25.296Z,6.57
2023-03-08T03:37:52.309Z,6.03
2023-03-08T03:40:19.414Z,7.07
2023-03-08T03:42:48.959Z,6.63
2023-03-08T03:45:15.965Z,7.30
2023-03-08T03:47:42.848Z,6.33
2023-03-08T03:50:12.114Z,6.53
2023-03-08T03:52:38.986Z,6.83
2023-03-08T03:55:08.369Z,7.43
2023-03-08T03:57:35.276Z,7.70
2023-03-08T04:00:02.252Z,6.63
2023-03-08T04:02:29.300Z,5.90
2023-03-08T04:04:56.246Z,5.93
2023-03-08T04:07:24.487Z,7.80
2023-03-08T04:09:51.397Z,7.17
2023-03-08T04:12:18.313Z,6.73
2023-03-08T04:14:45.370Z,8.13
2023-03-08T04:17:13.057Z,8.10
2023-03-08T04:19:40.307Z,7.03
2023-03-08T04:22:07.195Z,7.40
2023-03-08T04:24:35.581Z,7.07
2023-03-08T04:27:02.507Z,7.47
2023-03-08T04:29:29.601Z,6.97
2023-03-08T04:32:00.053Z,8.23
2023-03-08T04:34:27.796Z,7.30
2023-03-08T04:36:54.792Z,7.80
2023-03-08T04:39:21.742Z,7.27
2023-03-08T04:41:50.023Z,7.20
2023-03-08T04:44:17.058Z,7.77
2023-03-08T04:46:44.054Z,7.90
2023-03-08T04:49:11.030Z,7.03
2023-03-08T04:51:37.992Z,7.80
2023-03-08T04:54:05.049Z,7.40
2023-03-08T04:56:31.987Z,7.63
2023-03-08T04:59:00.280Z,8.17
2023-03-08T05:01:27.226Z,6.57
2023-03-08T05:03:55.146Z,7.47
2023-03-08T05:06:24.894Z,7.27
2023-03-08T05:08:52.458Z,8.10
2023-03-08T05:11:23.170Z,9.43
2023-03-08T05:13:50.519Z,8.30
2023-03-08T05:16:19.150Z,8.07
2023-03-08T05:18:46.287Z,8.37
2023-03-08T05:21:16.148Z,8.07
2023-03-08T05:23:43.528Z,8.23
2023-03-08T05:26:14.186Z,7.27
2023-03-08T05:28:42.069Z,8.43
2023-03-08T05:31:12.923Z,8.37
2023-03-08T05:33:43.115Z,8.40
2023-03-08T05:36:11.371Z,8.33
2023-03-08T05:38:38.369Z,9.40
2023-03-08T05:41:08.936Z,9.40
2023-03-08T05:43:36.212Z,8.93
2023-03-08T05:46:06.212Z,9.33
2023-03-08T05:48:35.653Z,9.67
2023-03-08T05:51:07.390Z,8.40
2023-03-08T05:53:34.882Z,8.63
2023-03-08T05:56:09.666Z,8.87
2023-03-08T05:58:37.027Z,6.90
2023-03-08T06:01:14.851Z,8.33
2023-03-08T06:03:42.083Z,8.50
2023-03-08T06:06:10.523Z,9.07
2023-03-08T06:08:37.807Z,9.00
2023-03-08T06:11:05.611Z,8.37
2023-03-08T06:13:33.067Z,9.27
2023-03-08T06:16:01.384Z,8.33
2023-03-08T06:18:30.601Z,9.50
2023-03-08T06:21:03.473Z,8.67
2023-03-08T06:23:34.152Z,9.10
2023-03-08T06:26:02.056Z,9.67
2023-03-08T06:28:29.585Z,10.00
2023-03-08T06:30:56.634Z,9.03
2023-03-08T06:33:27.575Z,10.30
2023-03-08T06:35:59.634Z,10.13
2023-03-08T06:38:31.763Z,9.87
2023-03-08T06:41:02.339Z,9.67
2023-03-08T06:43:29.585Z,9.90
2023-03-08T06:45:57.007Z,8.93
2023-03-08T06:48:24.537Z,10.53
2023-03-08T06:50:51.505Z,9.20
2023-03-08T06:53:18.890Z,9.77
2023-03-08T06:55:45.876Z,9.43
2023-03-08T06:58:14.145Z,9.53
2023-03-08T07:00:41.251Z,9.20
2023-03-08T07:03:08.338Z,10.67
2023-03-08T07:05:35.288Z,9.17
2023-03-08T07:08:02.322Z,8.77
2023-03-08T07:10:29.451Z,11.17
2023-03-08T07:12:56.446Z,9.03
2023-03-08T07:15:25.351Z,9.90
2023-03-08T07:17:58.348Z,9.87
2023-03-08T07:20:27.567Z,9.87
2023-03-08T07:22:54.950Z,9.67
2023-03-08T07:25:22.445Z,9.10
2023-03-08T07:27:49.402Z,9.57
2023-03-08T07:30:17.280Z,8.23
2023-03-08T07:32:45.945Z,9.23
2023-03-08T07:35:15.683Z,8.70
2023-03-08T07:37:45.580Z,10.33
2023-03-08T07:40:14.908Z,8.93
2023-03-08T07:42:42.301Z,11.03
2023-03-08T07:45:12.221Z,11.23
2023-03-08T07:47:40.429Z,10.10
2023-03-08T07:50:11.175Z,11.23
2023-03-08T07:52:38.348Z,10.57
2023-03-08T07:55:07.361Z,10.10
2023-03-08T07:57:34.239Z,10.03
2023-03-08T08:00:01.177Z,10.27
2023-03-08T08:02:28.117Z,10.87
2023-03-08T08:04:55.183Z,9.60
2023-03-08T08:07:23.493Z,11.20
2023-03-08T08:09:50.429Z,10.50
2023-03-08T08:12:18.051Z,10.53
2023-03-08T08:14:45.092Z,9.10
2023-03-08T08:17:12.260Z,8.80
2023-03-08T08:19:39.722Z,9.13
2023-03-08T08:22:06.868Z,10.30
2023-03-08T08:24:35.755Z,10.63
2023-03-08T08:27:03.040Z,10.33
2023-03-08T08:29:29.937Z,9.73
2023-03-08T08:31:57.263Z,10.40
2023-03-08T08:34:25.020Z,10.37
2023-03-08T08:36:51.965Z,9.53
2023-03-08T08:39:18.926Z,9.70
2023-03-08T08:41:48.952Z,9.70
2023-03-08T08:44:15.967Z,9.20
2023-03-08T08:46:42.846Z,10.17
2023-03-08T08:49:10.689Z,10.00
2023-03-08T08:51:37.674Z,10.13
2023-03-08T08:54:04.815Z,9.60
2023-03-08T08:56:31.896Z,12.97
2023-03-08T08:59:03.076Z,11.30
2023-03-08T09:01:33.105Z,9.90
2023-03-08T09:04:00.535Z,9.87
2023-03-08T09:06:29.573Z,9.40
2023-03-08T09:08:58.899Z,9.40
2023-03-08T09:11:28.587Z,9.30
2023-03-08T09:13:56.158Z,9.70
2023-03-08T09:16:27.334Z,7.60
2023-03-08T09:18:56.754Z,12.63
2023-03-08T09:21:24.514Z,9.50
2023-03-08T09:23:51.777Z,8.90
2023-03-08T09:26:19.158Z,9.00
2023-03-08T09:28:46.737Z,26.23
2023-03-08T09:31:17.066Z,9.87
2023-03-08T09:33:49.281Z,8.97
2023-03-08T09:36:16.475Z,9.17
2023-03-08T09:38:43.879Z,7.97
2023-03-08T09:41:31.875Z,8.27
2023-03-08T09:44:26.824Z,8.53
2023-03-08T09:47:03.385Z,9.33
2023-03-08T09:49:36.423Z,9.80
2023-03-08T09:52:14.126Z,9.23
2023-03-08T09:54:42.610Z,9.47
2023-03-08T09:57:18.750Z,8.90
2023-03-08T09:59:53.971Z,9.17
2023-03-08T10:02:33.778Z,8.40
2023-03-08T10:05:13.588Z,9.40
2023-03-08T10:07:56.881Z,8.20
2023-03-08T10:10:39.482Z,8.00
2023-03-08T10:13:27.807Z,9.27
2023-03-08T10:16:05.237Z,9.00
2023-03-08T10:18:41.948Z,8.13
2023-03-08T10:21:17.153Z,8.77
2023-03-08T10:23:48.798Z,8.40
2023-03-08T10:26:17.655Z,12.73
2023-03-08T10:28:45.278Z,8.67
2023-03-08T10:31:26.517Z,8.13
2023-03-08T10:34:03.990Z,7.73
2023-03-08T10:36:32.423Z,8.10
2023-03-08T10:39:08.360Z,8.87
2023-03-08T10:41:44.591Z,7.27
2023-03-08T10:44:16.854Z,7.90
2023-03-08T10:46:49.371Z,7.87
2023-03-08T10:49:19.440Z,7.87
2023-03-08T10:51:56.750Z,7.23
2023-03-08T10:54:24.115Z,8.77
2023-03-08T10:56:56.359Z,7.03
2023-03-08T10:59:32.242Z,7.00
2023-03-08T11:02:03.044Z,8.73
2023-03-08T11:04:31.033Z,12.23
2023-03-08T11:07:11.415Z,7.70
2023-03-08T11:09:38.371Z,9.27
2023-03-08T11:12:05.687Z,14.10
2023-03-08T11:14:32.775Z,15.53
2023-03-08T11:17:17.823Z,14.37
2023-03-08T11:20:14.732Z,14.00
2023-03-08T11:23:13.766Z,15.10
2023-03-08T11:25:47.095Z,17.10
2023-03-08T11:28:54.463Z,18.07
2023-03-08T11:31:36.729Z,18.73
2023-03-08T11:34:36.107Z,18.13
2023-03-08T11:37:17.553Z,16.43
2023-03-08T11:39:54.887Z,17.63
2023-03-08T11:42:33.517Z,16.20
2023-03-08T11:45:21.456Z,15.00
2023-03-08T11:48:37.865Z,21.60
2023-03-08T11:51:13.953Z,13.57
2023-03-08T11:53:57.660Z,11.97
2023-03-08T11:56:44.190Z,10.97
2023-03-08T11:59:20.965Z,10.77
2023-03-08T12:01:54.440Z,12.20
2023-03-08T12:04:32.805Z,11.67
2023-03-08T12:07:08.518Z,10.57
2023-03-08T12:09:46.133Z,8.70
2023-03-08T12:12:24.841Z,11.40
2023-03-08T12:14:59.428Z,8.37
2023-03-08T12:17:35.038Z,9.27
2023-03-08T12:20:07.206Z,8.13
2023-03-08T12:22:46.717Z,16.73
2023-03-08T12:25:26.389Z,7.53
2023-03-08T12:28:03.263Z,7.00
2023-03-08T12:30:49.601Z,7.17
2023-03-08T12:33:18.488Z,6.83
2023-03-08T12:35:56.432Z,9.70
2023-03-08T12:38:37.094Z,7.00
2023-03-08T12:41:07.013Z,8.37
2023-03-08T12:43:38.029Z,6.97
2023-03-08T12:46:08.870Z,7.30
2023-03-08T12:48:39.706Z,6.70
2023-03-08T12:51:23.996Z,6.07
2023-03-08T12:54:01.409Z,6.57
2023-03-08T12:56:34.558Z,6.57
2023-03-08T12:59:29.356Z,5.87
2023-03-08T13:02:16.543Z,6.73
2023-03-08T13:04:43.585Z,5.50
2023-03-08T13:07:26.817Z,5.40
2023-03-08T13:10:01.902Z,5.00
2023-03-08T13:12:41.933Z,5.10
2023-03-08T13:15:24.468Z,4.60
2023-03-08T13:18:03.869Z,5.10
2023-03-08T13:20:53.033Z,4.97
2023-03-08T13:23:31.519Z,5.68
2023-03-08T13:26:26.922Z,6.13
2023-03-08T13:28:56.046Z,5.67
2023-03-08T13:31:29.962Z,5.83
2023-03-08T13:33:59.919Z,6.47
2023-03-08T13:36:29.170Z,6.03
2023-03-08T13:39:00.358Z,6.77
2023-03-08T13:41:36.305Z,5.87
2023-03-08T13:44:06.636Z,5.87
2023-03-08T13:46:37.342Z,5.23
2023-03-08T13:49:13.757Z,4.90
2023-03-08T13:51:44.901Z,5.33
2023-03-08T13:54:18.419Z,7.77
2023-03-08T13:56:45.555Z,5.33
2023-03-08T13:59:20.557Z,5.10
2023-03-08T14:01:50.824Z,6.60
2023-03-08T14:04:21.860Z,4.10
2023-03-08T14:06:52.186Z,4.00
2023-03-08T14:09:20.223Z,3.23
2023-03-08T14:11:58.141Z,3.10
2023-03-08T14:14:31.683Z,3.20
2023-03-08T14:17:00.944Z,4.27
2023-03-08T14:19:30.702Z,4.40
2023-03-08T14:22:00.798Z,2.73
2023-03-08T14:24:31.895Z,4.23
2023-03-08T14:27:01.519Z,3.90
2023-03-08T14:29:30.458Z,10.53
2023-03-08T14:32:07.016Z,4.90
2023-03-08T14:34:36.605Z,4.77
2023-03-08T14:37:13.469Z,3.80
2023-03-08T14:39:44.108Z,4.10
2023-03-08T14:42:21.143Z,4.03
2023-03-08T14:44:54.001Z,4.47
2023-03-08T14:47:27.132Z,4.53
2023-03-08T14:50:02.147Z,3.53
2023-03-08T14:52:32.051Z,5.07
2023-03-08T14:54:59.100Z,5.00
2023-03-08T14:57:28.573Z,5.07
2023-03-08T15:00:07.578Z,4.63
2023-03-08T15:02:37.237Z,5.30
2023-03-08T15:05:05.758Z,5.80
2023-03-08T15:07:36.202Z,6.13
2023-03-08T15:10:07.511Z,5.27
2023-03-08T15:12:34.595Z,6.87
2023-03-08T15:15:01.572Z,6.10
2023-03-08T15:17:28.527Z,6.00
2023-03-08T15:19:56.799Z,5.17
2023-03-08T15:22:26.281Z,6.13
2023-03-08T15:24:53.863Z,6.07
2023-03-08T15:27:20.912Z,9.70
2023-03-08T15:29:47.852Z,8.53
2023-03-08T15:32:14.864Z,6.63
2023-03-08T15:34:41.877Z,7.07
2023-03-08T15:37:14.162Z,5.67
2023-03-08T15:39:41.471Z,5.40
2023-03-08T15:42:08.416Z,5.50
2023-03-08T15:44:35.337Z,5.73
2023-03-08T15:47:02.262Z,6.20
2023-03-08T15:49:29.294Z,5.50
2023-03-08T15:51:56.194Z,5.63
2023-03-08T15:54:24.499Z,6.03
2023-03-08T15:56:51.443Z,5.23
2023-03-08T15:59:18.392Z,6.33
2023-03-08T16:01:45.416Z,6.23
2023-03-08T16:04:12.403Z,5.90
2023-03-08T16:06:41.492Z,5.70
2023-03-08T16:09:08.394Z,5.87
2023-03-08T16:11:36.599Z,5.40
2023-03-08T16:14:03.515Z,5.40
2023-03-08T16:16:44.384Z,5.33
2023-03-08T16:19:12.410Z,4.80
2023-03-08T16:21:39.755Z,5.20
2023-03-08T16:24:06.905Z,4.60
2023-03-08T16:26:33.845Z,8.30
2023-03-08T16:29:02.067Z,5.37
2023-03-08T16:31:31.609Z,5.90
2023-03-08T16:34:01.549Z,4.53
2023-03-08T16:36:28.665Z,4.90
2023-03-08T16:38:56.649Z,5.30
2023-03-08T16:41:26.081Z,4.80
2023-03-08T16:43:53.930Z,3.97
2023-03-08T16:46:23.488Z,4.50
2023-03-08T16:48:54.315Z,5.20
2023-03-08T16:51:24.670Z,5.00
2023-03-08T16:53:52.581Z,5.00
2023-03-08T16:56:20.966Z,4.63
2023-03-08T16:58:48.405Z,5.10
2023-03-08T17:01:17.887Z,4.93
2023-03-08T17:03:47.090Z,4.93
2023-03-08T17:06:17.927Z,4.83
2023-03-08T17:08:45.669Z,4.87
2023-03-08T17:11:17.207Z,5.30
2023-03-08T17:13:47.685Z,4.77
2023-03-08T17:16:14.628Z,5.83
2023-03-08T17:18:41.561Z,5.10
2023-03-08T17:21:09.852Z,5.17
2023-03-08T17:23:36.992Z,5.80
2023-03-08T17:26:06.081Z,5.40
2023-03-08T17:28:33.623Z,4.90
2023-03-08T17:31:01.012Z,5.50
2023-03-08T17:33:28.329Z,5.17
2023-03-08T17:35:59.183Z,5.03
2023-03-08T17:38:28.018Z,5.00
2023-03-08T17:40:55.005Z,4.43
2023-03-08T17:43:21.993Z,5.10
2023-03-08T17:45:58.200Z,8.07
2023-03-08T17:48:25.286Z,6.63
2023-03-08T17:50:52.419Z,5.57
2023-03-08T17:53:19.772Z,4.47
2023-03-08T17:55:48.028Z,5.63
2023-03-08T17:58:15.010Z,7.40
2023-03-08T18:00:41.922Z,10.00
2023-03-08T18:03:08.793Z,9.10
2023-03-08T18:05:35.815Z,9.53
2023-03-08T18:08:03.272Z,8.67
2023-03-08T18:10:30.677Z,10.27
2023-03-08T18:12:58.999Z,10.87
2023-03-08T18:15:25.915Z,10.70
2023-03-08T18:17:53.336Z,10.53
2023-03-08T18:20:20.568Z,10.17
2023-03-08T18:22:47.781Z,10.37
2023-03-08T18:25:14.702Z,10.60
2023-03-08T18:27:41.715Z,10.87
2023-03-08T18:30:12.405Z,9.43
2023-03-08T18:32:40.048Z,9.57
2023-03-08T18:35:08.575Z,8.40
2023-03-08T18:37:36.260Z,8.83
2023-03-08T18:40:09.860Z,8.70
2023-03-08T18:42:36.842Z,8.00
2023-03-08T18:45:07.937Z,8.90
2023-03-08T18:47:37.702Z,8.30
2023-03-08T18:50:07.083Z,8.63
2023-03-08T18:52:34.199Z,8.60
2023-03-08T18:55:01.148Z,9.30
2023-03-08T18:57:28.098Z,8.90
2023-03-08T18:59:55.004Z,8.60
2023-03-08T19:02:26.830Z,8.73
2023-03-08T19:04:56.509Z,8.40
2023-03-08T19:07:23.766Z,9.37
2023-03-08T19:09:54.260Z,8.50
2023-03-08T19:12:21.234Z,8.10
2023-03-08T19:14:48.842Z,7.57
2023-03-08T19:17:16.385Z,7.50
2023-03-08T19:19:43.379Z,7.57
2023-03-08T19:22:12.862Z,6.77
2023-03-08T19:24:39.728Z,7.30
2023-03-08T19:27:06.693Z,6.87
2023-03-08T19:29:33.702Z,7.63
2023-03-08T19:32:03.071Z,7.23
2023-03-08T19:34:33.968Z,7.10
2023-03-08T19:37:02.133Z,6.47
2023-03-08T19:39:33.617Z,7.00
2023-03-08T19:42:03.795Z,7.07
2023-03-08T19:44:31.954Z,7.40
2023-03-08T19:47:00.435Z,8.10
2023-03-08T19:49:30.896Z,7.57
2023-03-08T19:52:00.303Z,10.30
2023-03-08T19:54:30.651Z,8.67
2023-03-08T19:56:58.963Z,7.23
2023-03-08T19:59:26.751Z,6.17
2023-03-08T20:01:55.825Z,7.23
2023-03-08T20:04:24.146Z,6.70
2023-03-08T20:06:51.655Z,6.73
2023-03-08T20:09:24.149Z,6.17
2023-03-08T20:11:57.713Z,5.93
2023-03-08T20:14:27.844Z,6.73
2023-03-08T20:16:55.254Z,5.90
2023-03-08T20:19:22.273Z,7.23
2023-03-08T20:21:49.370Z,6.40
2023-03-08T20:24:18.694Z,6.10
2023-03-08T20:26:46.842Z,6.73
2023-03-08T20:29:15.633Z,6.83
2023-03-08T20:31:43.956Z,6.33
2023-03-08T20:34:10.958Z,6.43
2023-03-08T20:36:38.304Z,6.43
2023-03-08T20:39:05.704Z,6.97
2023-03-08T20:41:32.932Z,6.97
2023-03-08T20:43:59.872Z,6.13
2023-03-08T20:46:33.024Z,5.93
2023-03-08T20:49:00.863Z,6.03
2023-03-08T20:51:28.608Z,6.77
2023-03-08T20:53:56.402Z,6.93
2023-03-08T20:56:26.024Z,6.53
2023-03-08T20:58:56.434Z,7.20
2023-03-08T21:01:26.357Z,6.43
2023-03-08T21:03:54.683Z,6.53
2023-03-08T21:06:25.826Z,6.90
2023-03-08T21:08:53.430Z,7.40
2023-03-08T21:11:21.705Z,6.70
2023-03-08T21:13:50.912Z,6.87
2023-03-08T21:16:21.870Z,6.80
2023-03-08T21:18:50.325Z,8.27
2023-03-08T21:21:21.595Z,8.13
2023-03-08T21:23:50.136Z,7.70
2023-03-08T21:26:17.119Z,8.13
2023-03-08T21:28:44.067Z,7.80
2023-03-08T21:31:11.310Z,7.70
2023-03-08T21:33:38.293Z,7.90
2023-03-08T21:36:05.880Z,7.90
2023-03-08T21:38:34.201Z,8.27
2023-03-08T21:41:01.222Z,8.00
2023-03-08T21:43:28.141Z,7.93
2023-03-08T21:45:55.194Z,8.13
2023-03-08T21:48:22.708Z,8.93
2023-03-08T21:50:49.750Z,8.13
2023-03-08T21:53:16.737Z,8.60
2023-03-08T21:55:45.002Z,8.33
2023-03-08T21:58:11.888Z,9.43
2023-03-08T22:00:38.751Z,9.37
2023-03-08T22:03:05.761Z,9.43
2023-03-08T22:05:32.793Z,8.90
2023-03-08T22:07:59.647Z,8.43
2023-03-08T22:10:26.690Z,8.90
2023-03-08T22:12:55.594Z,8.87
2023-03-08T22:15:22.547Z,9.20
2023-03-08T22:17:49.464Z,8.93
2023-03-08T22:20:16.510Z,8.73
2023-03-08T22:22:44.131Z,9.20
2023-03-08T22:25:11.954Z,9.30
2023-03-08T22:27:39.050Z,8.80
2023-03-08T22:30:11.182Z,9.70
2023-03-08T22:32:40.059Z,9.77
2023-03-08T22:35:09.493Z,9.70
2023-03-08T22:37:36.692Z,9.20
2023-03-08T22:40:06.605Z,9.07
2023-03-08T22:42:34.018Z,9.47
2023-03-08T22:45:01.110Z,9.57
2023-03-08T22:47:29.497Z,8.77
2023-03-08T22:49:56.466Z,8.47
2023-03-08T22:52:23.993Z,9.47
2023-03-08T22:54:50.972Z,8.87
2023-03-08T22:57:18.626Z,8.60
2023-03-08T22:59:45.604Z,9.00
2023-03-08T23:02:13.654Z,9.80
2023-03-08T23:04:42.098Z,10.20
2023-03-08T23:07:09.100Z,9.27
2023-03-08T23:09:36.123Z,10.23
2023-03-08T23:12:04.730Z,9.30
2023-03-08T23:14:32.392Z,10.67
2023-03-08T23:16:59.791Z,10.13
2023-03-08T23:19:27.523Z,10.17
2023-03-08T23:21:56.011Z,9.20
2023-03-08T23:24:22.987Z,10.93
2023-03-08T23:26:50.161Z,9.70
2023-03-08T23:29:17.241Z,9.77
2023-03-08T23:31:46.324Z,10.13
2023-03-08T23:34:13.317Z,10.73
2023-03-08T23:36:40.242Z,9.97
2023-03-08T23:39:08.617Z,10.30
2023-03-08T23:41:35.617Z,11.10
2023-03-08T23:44:03.820Z,10.03
2023-03-08T23:46:31.626Z,10.33
2023-03-08T23:49:00.600Z,10.17
2023-03-08T23:51:31.726Z,10.40
2023-03-08T23:54:01.284Z,10.77
2023-03-08T23:56:37.634Z,10.27
2023-03-08T23:59:08.101Z,10.90
